Pagrindinis puslapis
METAR-TAF:

METAR-TAF

Oro uostai :

Nörvenich, Vokietija

platuma: 50-50N, ilguma: 006-40E, Aukštis: 118 m

Dabartinis oras

Ataskaita buvo paskelbta 19 minutes, ne 14:20 UTC
Vėjas 8 kt iš Šiaurės Rytų
Temperatūra 22°C
Drėgmė 29%
Slėgis 1021 hPa
Matomumas 10 km arba daugiau
Išsisklaidę debesys ne aukštis 7800 ft

METAR: ETNN 301420Z 04008KT 9999 SCT078 22/03 Q1021 BLU+

Laikas: 16:39 (14:39 UTC)

Prognozė

Ataskaita buvo paskelbta 1 valandą ir 34 minutes, ne 13:05 UTC
Prognozė galioja nuo 30 metu 14 UTC su 30 metu 23 UTC
Vėjas 8 kt iš Rytų
Matomumas 10 km arba daugiau
Išsisklaidę debesys ne aukštis 7000 ft

TAF: ETNN 301305Z 3014/3023 08008KT 9999 NSW SCT070 BY ETGL

Orai ataskaitas ir orų prognozės (METAR, TAF).

turimą stotys yra geltonos ir raudonos taškus žemėlapyje.

Perkelti pele per norėdami pamatyti stoties vardą.

Tada spustelėkite, norėdami matyti oro stebėjimo ir prognozės.

Norėdami pakeisti žemėlapį: spustelėkite ant žalios mygtukų su juodo kryžiaus žemyn,; žalią mygtuką su brūkšneliu, jei norite nutolinti; arba žalių rodyklių gretimoms žemėlapius.


METAR-TAF: